Time;durP1;ratioP1;P1;durP2;ratioP2;P2;SDS_P1;SDS_P2;PMS_P1;PMS_P2;Temp;Humidity;BMP_temperature;BMP_pressure;BME280_temperature;BME280_humidity;BME280_pressure;Samples;Min_cycle;Max_cycle;Signal;HPM_P1;HPM_P2
2022/08/09 00:02:25;;;;;;;23.80;18.67;;;20.90;99.90;;;;;;5014134;28;20400;-76
2022/08/09 00:04:52;;;;;;;21.17;18.17;;;20.90;99.90;;;;;;5013933;28;20053;-76
2022/08/09 00:07:20;;;;;;;23.10;18.40;;;20.80;99.90;;;;;;5002378;28;20050;-76
2022/08/09 00:09:48;;;;;;;20.50;18.05;;;20.80;99.90;;;;;;5046920;28;20120;-75
2022/08/09 00:12:16;;;;;;;24.50;19.83;;;20.80;99.90;;;;;;5040729;28;20048;-80
2022/08/09 00:14:43;;;;;;;24.60;19.40;;;20.80;99.90;;;;;;5037557;28;20080;-77
2022/08/09 00:17:10;;;;;;;24.15;19.52;;;20.90;99.90;;;;;;5037328;28;20073;-78
2022/08/09 00:19:38;;;;;;;24.05;18.73;;;20.90;99.90;;;;;;5037566;28;20139;-78
2022/08/09 00:22:05;;;;;;;23.25;19.02;;;21.00;99.90;;;;;;5037355;28;20141;-78
2022/08/09 00:24:32;;;;;;;26.13;19.83;;;21.00;99.90;;;;;;5020030;28;20534;-77
2022/08/09 00:27:02;;;;;;;24.27;19.88;;;21.00;99.90;;;;;;5037582;28;20046;-79
2022/08/09 00:29:30;;;;;;;23.45;19.08;;;21.00;99.90;;;;;;5037261;28;20041;-76
2022/08/09 00:31:57;;;;;;;21.83;18.65;;;20.90;99.90;;;;;;5036857;28;20037;-76
2022/08/09 00:34:24;;;;;;;26.58;19.42;;;20.90;99.90;;;;;;5037139;28;20132;-76
2022/08/09 00:36:52;;;;;;;21.20;18.23;;;20.80;99.90;;;;;;5036516;28;20072;-78
2022/08/09 00:39:19;;;;;;;24.80;18.88;;;20.70;99.90;;;;;;5040150;28;20049;-77
2022/08/09 00:41:46;;;;;;;22.45;18.80;;;20.70;99.90;;;;;;5038492;28;20065;-78
2022/08/09 00:44:15;;;;;;;22.65;18.55;;;20.70;99.90;;;;;;5036957;28;20508;-76
2022/08/09 00:46:43;;;;;;;22.95;18.55;;;20.60;99.90;;;;;;5036471;28;20080;-76
2022/08/09 00:49:10;;;;;;;17.85;15.07;;;20.50;99.90;;;;;;5036404;28;20053;-78
2022/08/09 00:51:38;;;;;;;19.85;17.30;;;20.50;99.90;;;;;;5036736;28;20065;-79
2022/08/09 00:54:05;;;;;;;20.75;18.45;;;20.50;99.90;;;;;;5036993;28;20046;-75
2022/08/09 00:56:32;;;;;;;23.05;20.00;;;20.50;99.90;;;;;;5029418;28;20443;-76
2022/08/09 00:59:00;;;;;;;21.30;18.42;;;20.50;99.90;;;;;;5036694;28;20076;-75
2022/08/09 01:01:34;;;;;;;23.42;17.45;;;20.60;99.90;;;;;;5019146;28;20390;-77
2022/08/09 01:04:08;;;;;;;24.48;18.67;;;20.60;99.90;;;;;;5052000;28;20060;-76
2022/08/09 01:06:40;;;;;;;18.02;15.90;;;20.60;99.90;;;;;;5038863;28;20060;-76
2022/08/09 01:09:13;;;;;;;20.25;16.48;;;20.60;99.90;;;;;;5036729;28;20408;-76
2022/08/09 01:11:53;;;;;;;18.67;15.45;;;20.60;99.90;;;;;;5026393;28;20061;-78
2022/08/09 01:14:27;;;;;;;17.48;14.32;;;20.60;99.90;;;;;;5060764;28;20044;-78
2022/08/09 01:17:04;;;;;;;19.02;14.25;;;20.60;99.90;;;;;;5060611;28;20053;-79
2022/08/09 01:19:48;;;;;;;16.05;14.07;;;20.50;99.90;;;;;;5040561;28;20050;-79
2022/08/09 01:22:48;;;;;;;18.58;14.05;;;20.50;99.90;;;;;;5036709;28;20069;-80
2022/08/09 01:25:50;;;;;;;15.20;13.60;;;20.40;99.90;;;;;;5036046;28;20072;-79
2022/08/09 01:28:21;;;;;;;14.30;12.40;;;20.40;99.90;;;;;;5034021;28;20111;-79
2022/08/09 01:30:51;;;;;;;12.65;10.65;;;20.40;99.90;;;;;;5019104;28;20041;-78
2022/08/09 01:33:21;;;;;;;13.68;9.93;;;20.30;99.90;;;;;;5036679;28;20114;-79
2022/08/09 01:35:53;;;;;;;11.15;9.95;;;20.30;99.90;;;;;;5029696;28;20128;-77
2022/08/09 01:38:24;;;;;;;10.45;9.40;;;20.30;99.90;;;;;;5036626;28;20103;-78
2022/08/09 01:40:56;;;;;;;14.52;12.32;;;20.30;99.90;;;;;;5036671;28;20091;-78
2022/08/09 01:43:24;;;;;;;12.35;9.88;;;20.30;99.90;;;;;;5035578;28;20029;-78
2022/08/09 01:45:54;;;;;;;13.02;9.68;;;20.30;99.90;;;;;;5036210;28;20120;-76
2022/08/09 01:48:22;;;;;;;12.85;9.32;;;20.20;99.90;;;;;;5017958;28;20447;-77
2022/08/09 01:50:52;;;;;;;12.98;10.90;;;20.20;99.90;;;;;;5036049;28;20448;-78
2022/08/09 01:53:22;;;;;;;12.82;11.30;;;20.20;99.90;;;;;;5036430;28;20444;-79
2022/08/09 01:55:52;;;;;;;14.10;12.50;;;20.10;99.90;;;;;;5024470;28;20049;-79
2022/08/09 01:58:20;;;;;;;14.77;13.07;;;20.10;99.90;;;;;;5016077;28;20053;-78
2022/08/09 02:00:51;;;;;;;14.20;12.70;;;20.10;99.90;;;;;;4999323;28;20481;-77
2022/08/09 02:03:19;;;;;;;14.00;12.18;;;20.20;99.90;;;;;;5035381;28;20033;-78
2022/08/09 02:05:49;;;;;;;21.10;13.85;;;20.10;99.90;;;;;;5038026;28;20099;-78
2022/08/09 02:08:20;;;;;;;15.82;13.98;;;20.00;99.90;;;;;;5049952;28;20095;-77
2022/08/09 02:10:51;;;;;;;15.32;13.05;;;20.10;99.90;;;;;;5037139;28;20050;-76
2022/08/09 02:13:21;;;;;;;13.73;12.15;;;20.10;99.90;;;;;;5035870;28;20558;-75
2022/08/09 02:15:52;;;;;;;13.93;12.52;;;20.10;99.90;;;;;;5028849;28;20045;-77
2022/08/09 02:18:23;;;;;;;14.45;12.48;;;20.10;99.90;;;;;;5035205;28;20041;-77
2022/08/09 02:20:56;;;;;;;13.45;12.02;;;20.20;99.90;;;;;;5036287;28;20107;-78
2022/08/09 02:23:29;;;;;;;13.50;12.10;;;20.20;99.90;;;;;;5035536;28;20048;-78
2022/08/09 02:26:00;;;;;;;15.38;13.40;;;20.10;99.90;;;;;;5035169;28;20551;-78
2022/08/09 02:28:31;;;;;;;16.13;13.23;;;20.20;99.90;;;;;;5035145;28;20559;-78
2022/08/09 02:31:03;;;;;;;12.95;11.65;;;20.20;99.90;;;;;;5033758;28;20037;-77
2022/08/09 02:33:36;;;;;;;15.63;12.07;;;20.20;99.90;;;;;;5034439;28;20039;-76
2022/08/09 02:36:06;;;;;;;12.65;11.18;;;20.20;99.90;;;;;;5015192;28;20042;-77
2022/08/09 02:38:42;;;;;;;11.27;9.95;;;20.20;99.90;;;;;;5014960;28;20041;-76
2022/08/09 02:41:13;;;;;;;11.63;10.43;;;20.10;99.90;;;;;;5015285;28;20041;-75
2022/08/09 02:43:44;;;;;;;12.50;9.55;;;20.10;99.90;;;;;;5023553;28;20095;-76
2022/08/09 02:46:16;;;;;;;11.45;9.13;;;20.10;99.90;;;;;;5035711;28;20053;-76
2022/08/09 02:48:46;;;;;;;9.32;8.40;;;20.00;99.90;;;;;;5017466;28;20088;-76
2022/08/09 02:51:18;;;;;;;8.38;7.55;;;20.00;99.90;;;;;;5035690;28;20069;-76
2022/08/09 02:53:48;;;;;;;10.55;8.55;;;20.00;99.90;;;;;;5026889;28;20489;-76
2022/08/09 02:56:17;;;;;;;9.38;8.15;;;19.90;99.90;;;;;;5035199;28;20534;-76
2022/08/09 02:58:46;;;;;;;12.48;8.50;;;19.90;99.90;;;;;;5035847;28;20045;-77
2022/08/09 03:01:17;;;;;;;9.20;8.25;;;19.80;99.90;;;;;;5019161;28;20050;-77
2022/08/09 03:03:46;;;;;;;9.35;8.30;;;19.90;99.90;;;;;;5037335;28;20045;-79
2022/08/09 03:06:14;;;;;;;9.30;8.30;;;19.80;99.90;;;;;;5049610;28;20049;-77
2022/08/09 03:08:44;;;;;;;12.20;8.68;;;19.80;99.90;;;;;;5037674;28;20061;-77
2022/08/09 03:11:15;;;;;;;9.55;8.20;;;19.80;99.90;;;;;;5055546;28;20049;-76
2022/08/09 03:13:43;;;;;;;10.30;9.23;;;19.80;99.90;;;;;;5038008;28;20041;-77
2022/08/09 03:16:11;;;;;;;10.02;9.02;;;19.90;99.90;;;;;;5037678;28;20079;-76
2022/08/09 03:18:40;;;;;;;11.20;9.43;;;19.90;99.90;;;;;;5056110;28;20048;-79
2022/08/09 03:21:09;;;;;;;9.52;8.63;;;19.90;99.90;;;;;;5056258;28;20063;-79
2022/08/09 03:23:36;;;;;;;10.10;8.93;;;19.80;99.90;;;;;;5054693;28;20046;-78
2022/08/09 03:26:04;;;;;;;10.10;9.10;;;19.80;99.90;;;;;;5052610;28;20072;-78
2022/08/09 03:28:34;;;;;;;10.02;8.93;;;19.80;99.90;;;;;;5035778;28;20115;-78
2022/08/09 03:31:02;;;;;;;10.30;8.48;;;19.70;99.90;;;;;;5017790;28;20540;-78
2022/08/09 03:33:30;;;;;;;11.90;9.45;;;19.70;99.90;;;;;;5035055;28;20033;-78
2022/08/09 03:35:59;;;;;;;9.95;8.98;;;19.70;99.90;;;;;;5034949;28;20041;-78
2022/08/09 03:38:26;;;;;;;10.00;9.00;;;19.70;99.90;;;;;;5034775;28;20549;-75
2022/08/09 03:40:54;;;;;;;9.70;8.70;;;19.70;99.90;;;;;;5017430;28;20084;-79
2022/08/09 03:43:21;;;;;;;10.43;7.93;;;19.70;99.90;;;;;;5017623;28;20464;-78
2022/08/09 03:45:49;;;;;;;9.57;8.40;;;19.70;99.90;;;;;;5036145;28;20049;-78
2022/08/09 03:48:16;;;;;;;9.90;8.32;;;19.60;99.90;;;;;;5063354;23;20045;-77
2022/08/09 03:50:44;;;;;;;9.13;7.80;;;19.60;99.90;;;;;;5054540;28;20045;-75
2022/08/09 03:53:14;;;;;;;10.65;8.93;;;19.60;99.90;;;;;;5053745;28;20040;-75
2022/08/09 03:55:41;;;;;;;9.93;8.93;;;19.60;99.90;;;;;;5054308;28;20102;-76
2022/08/09 03:58:09;;;;;;;10.10;8.88;;;19.70;99.90;;;;;;5035083;28;20395;-76
2022/08/09 04:00:36;;;;;;;9.45;8.40;;;19.70;99.90;;;;;;5052960;28;20072;-77
2022/08/09 04:03:04;;;;;;;8.95;8.05;;;19.80;99.90;;;;;;5052749;28;20491;-77
2022/08/09 04:05:32;;;;;;;16.50;8.18;;;19.80;99.90;;;;;;5052856;28;20048;-77
2022/08/09 04:07:59;;;;;;;10.05;8.48;;;19.80;99.90;;;;;;5052668;28;20045;-77
2022/08/09 04:10:28;;;;;;;9.88;8.30;;;19.80;99.90;;;;;;5052564;28;20053;-76
2022/08/09 04:12:55;;;;;;;7.75;7.05;;;19.70;99.90;;;;;;5052253;28;20063;-76
2022/08/09 04:15:24;;;;;;;7.68;6.88;;;19.70;99.90;;;;;;5052906;28;20044;-77
2022/08/09 04:17:51;;;;;;;7.57;6.60;;;19.70;99.90;;;;;;5034633;28;20053;-76
2022/08/09 04:20:19;;;;;;;7.82;7.03;;;19.60;99.90;;;;;;5034920;28;20079;-77
2022/08/09 04:22:47;;;;;;;10.25;6.55;;;19.60;99.90;;;;;;5044785;28;20037;-76
2022/08/09 04:25:14;;;;;;;7.70;6.90;;;19.60;99.90;;;;;;5051986;28;20087;-76
2022/08/09 04:27:43;;;;;;;8.88;6.72;;;19.60;99.90;;;;;;5051600;28;20099;-77
2022/08/09 04:30:12;;;;;;;8.63;6.55;;;19.70;99.90;;;;;;5035141;28;20098;-76
2022/08/09 04:32:40;;;;;;;8.95;6.95;;;19.70;99.90;;;;;;5052341;28;20045;-76
2022/08/09 04:35:09;;;;;;;15.32;7.97;;;19.80;99.90;;;;;;5034909;28;20106;-76
2022/08/09 04:37:37;;;;;;;9.13;7.10;;;19.90;99.90;;;;;;5052438;28;20040;-76
2022/08/09 04:40:06;;;;;;;10.90;7.45;;;19.90;99.90;;;;;;5034532;28;20065;-76
2022/08/09 04:42:33;;;;;;;8.50;6.15;;;19.90;99.90;;;;;;5052013;28;20045;-76
2022/08/09 04:45:02;;;;;;;7.25;6.40;;;19.90;99.90;;;;;;5052737;28;20045;-76
2022/08/09 04:47:30;;;;;;;7.60;6.80;;;19.90;99.90;;;;;;5052317;28;20072;-76
2022/08/09 04:49:57;;;;;;;9.20;6.80;;;19.80;99.90;;;;;;5052578;28;20558;-76
2022/08/09 04:52:27;;;;;;;9.27;6.75;;;19.90;99.90;;;;;;5033847;28;20053;-76
2022/08/09 04:54:56;;;;;;;6.50;5.85;;;19.90;99.90;;;;;;5034671;28;20045;-76
2022/08/09 04:57:24;;;;;;;7.57;6.75;;;19.90;99.90;;;;;;5034712;28;20087;-76
2022/08/09 04:59:52;;;;;;;10.02;8.43;;;20.00;99.90;;;;;;5053440;28;20143;-77
2022/08/09 05:02:21;;;;;;;9.18;7.03;;;20.00;99.90;;;;;;5055602;28;20049;-77
2022/08/09 05:04:48;;;;;;;7.95;7.13;;;20.10;99.90;;;;;;5055734;28;20103;-76
2022/08/09 05:07:16;;;;;;;10.15;8.07;;;20.10;99.90;;;;;;5055530;28;20121;-76
2022/08/09 05:09:43;;;;;;;11.73;8.10;;;20.10;99.90;;;;;;5055758;28;20411;-77
2022/08/09 05:12:11;;;;;;;7.95;6.63;;;20.10;99.90;;;;;;5037453;28;20450;-77
2022/08/09 05:14:38;;;;;;;7.32;6.30;;;20.10;99.90;;;;;;5055454;28;20061;-77
2022/08/09 05:17:08;;;;;;;11.70;6.68;;;20.20;99.90;;;;;;5055121;28;20033;-77
2022/08/09 05:19:37;;;;;;;8.32;7.30;;;20.20;99.90;;;;;;5037791;28;20415;-77
2022/08/09 05:22:05;;;;;;;10.52;8.52;;;20.30;99.90;;;;;;5037155;28;20053;-77
2022/08/09 05:24:32;;;;;;;8.45;6.80;;;20.40;99.90;;;;;;5037102;28;20041;-77
2022/08/09 05:26:59;;;;;;;10.00;7.43;;;20.50;99.90;;;;;;5055012;28;20130;-77
2022/08/09 05:29:26;;;;;;;12.63;9.52;;;20.50;99.90;;;;;;5055036;28;20033;-76
2022/08/09 05:31:58;;;;;;;9.80;7.50;;;20.60;99.90;;;;;;5054791;28;20849;-77
2022/08/09 05:34:26;;;;;;;11.98;9.82;;;20.70;99.90;;;;;;5037197;28;20048;-77
2022/08/09 05:36:56;;;;;;;14.23;11.35;;;20.70;99.90;;;;;;5037216;28;20479;-77
2022/08/09 05:39:23;;;;;;;15.90;13.23;;;20.80;99.90;;;;;;5037303;28;20149;-77
2022/08/09 05:41:51;;;;;;;12.82;7.57;;;20.80;99.90;;;;;;5055011;28;20059;-77
2022/08/09 05:44:18;;;;;;;9.25;7.68;;;20.80;99.90;;;;;;5054775;28;20041;-77
2022/08/09 05:46:45;;;;;;;8.48;7.50;;;20.70;99.90;;;;;;5046798;28;20076;-77
2022/08/09 05:49:13;;;;;;;11.35;7.72;;;20.70;99.90;;;;;;5057083;28;20075;-82
2022/08/09 05:51:40;;;;;;;11.32;8.02;;;20.70;99.90;;;;;;5058684;28;20041;-77
2022/08/09 05:54:09;;;;;;;8.75;7.50;;;20.80;99.90;;;;;;5055889;28;20122;-78
2022/08/09 05:56:36;;;;;;;11.60;8.15;;;20.80;99.90;;;;;;5055136;28;20044;-77
2022/08/09 05:59:04;;;;;;;14.50;12.57;;;20.80;99.90;;;;;;5056009;28;20037;-77
2022/08/09 06:01:31;;;;;;;13.27;8.23;;;20.90;99.90;;;;;;5055992;28;20045;-77
2022/08/09 06:03:59;;;;;;;9.02;8.00;;;20.90;99.90;;;;;;5056153;28;20063;-77
2022/08/09 06:06:26;;;;;;;11.45;9.38;;;21.00;99.90;;;;;;5057407;28;20049;-78
2022/08/09 06:08:54;;;;;;;10.10;8.50;;;21.00;99.90;;;;;;5055030;28;20068;-77
2022/08/09 06:11:22;;;;;;;8.35;7.15;;;21.00;99.90;;;;;;5058253;28;20100;-79
2022/08/09 06:13:49;;;;;;;11.73;7.88;;;21.00;99.90;;;;;;5056596;28;20041;-78
2022/08/09 06:16:17;;;;;;;10.10;7.70;;;20.90;99.90;;;;;;5040667;28;20492;-79
2022/08/09 06:18:44;;;;;;;9.43;8.32;;;20.90;99.90;;;;;;5057175;28;20064;-78
2022/08/09 06:21:11;;;;;;;20.65;15.82;;;20.90;99.90;;;;;;5056629;28;20061;-78
2022/08/09 06:23:39;;;;;;;14.27;12.02;;;20.70;99.90;;;;;;5058900;28;20037;-77
2022/08/09 06:26:06;;;;;;;14.32;8.98;;;20.70;99.90;;;;;;5058931;28;20052;-77
2022/08/09 06:28:35;;;;;;;15.70;9.85;;;20.60;99.90;;;;;;5062180;28;20562;-77
2022/08/09 06:31:02;;;;;;;12.80;11.05;;;20.70;99.90;;;;;;5062134;28;20112;-76
2022/08/09 06:33:30;;;;;;;17.80;12.50;;;20.70;99.90;;;;;;5049849;28;20545;-77
2022/08/09 06:35:57;;;;;;;31.80;21.75;;;20.70;99.90;;;;;;5054992;28;20040;-77
2022/08/09 06:38:24;;;;;;;18.30;14.23;;;20.60;99.90;;;;;;5058372;28;20036;-77
2022/08/09 06:40:52;;;;;;;16.52;12.43;;;20.60;99.90;;;;;;5070695;28;20128;-78
2022/08/09 06:43:19;;;;;;;20.95;11.15;;;20.60;99.90;;;;;;5054989;28;20108;-77
2022/08/09 06:45:48;;;;;;;17.25;12.73;;;20.60;99.90;;;;;;5050962;28;20094;-78
2022/08/09 06:48:15;;;;;;;16.38;10.40;;;20.60;99.90;;;;;;5058686;28;20052;-78
2022/08/09 06:50:42;;;;;;;14.27;9.50;;;20.50;99.90;;;;;;5066788;28;20091;-78
2022/08/09 06:53:10;;;;;;;14.05;10.52;;;20.60;99.90;;;;;;5066800;28;20060;-79
2022/08/09 06:55:37;;;;;;;13.18;11.45;;;20.60;99.90;;;;;;5065530;28;20051;-77
2022/08/09 06:58:05;;;;;;;14.40;11.55;;;20.60;99.90;;;;;;5039654;28;20469;-78
2022/08/09 07:00:33;;;;;;;14.13;10.52;;;20.60;99.90;;;;;;5036841;28;20103;-77
2022/08/09 07:03:03;;;;;;;15.07;10.60;;;20.60;99.90;;;;;;5053809;28;20044;-78
2022/08/09 07:05:30;;;;;;;19.95;14.48;;;20.60;99.90;;;;;;5054077;28;20123;-78
2022/08/09 07:07:58;;;;;;;20.25;12.68;;;20.60;99.90;;;;;;5054347;28;20411;-78
2022/08/09 07:10:25;;;;;;;19.38;14.77;;;20.50;99.90;;;;;;5045818;28;20067;-78
2022/08/09 07:12:52;;;;;;;13.63;11.50;;;20.40;99.90;;;;;;5055250;28;20068;-78
2022/08/09 07:15:20;;;;;;;23.75;17.27;;;20.40;99.90;;;;;;5055489;28;20079;-78
2022/08/09 07:17:47;;;;;;;23.88;16.08;;;20.40;99.90;;;;;;5062946;28;20094;-78
2022/08/09 07:20:15;;;;;;;23.48;13.80;;;20.50;99.90;;;;;;5061090;28;20040;-77
2022/08/09 07:22:43;;;;;;;17.25;11.85;;;20.50;99.90;;;;;;5053525;28;20075;-78
2022/08/09 07:25:11;;;;;;;16.52;14.32;;;20.60;99.90;;;;;;5053488;28;20116;-77
2022/08/09 07:27:38;;;;;;;17.05;15.05;;;20.60;99.90;;;;;;5052817;28;20045;-77
2022/08/09 07:30:06;;;;;;;22.13;15.10;;;20.50;99.90;;;;;;5051610;28;20514;-79
2022/08/09 07:32:34;;;;;;;15.10;13.55;;;20.60;99.90;;;;;;5035958;28;20052;-77
2022/08/09 07:35:04;;;;;;;19.20;11.45;;;20.50;99.90;;;;;;5036129;28;20047;-78
2022/08/09 07:37:32;;;;;;;20.92;13.63;;;20.40;99.90;;;;;;5035607;28;20515;-78
2022/08/09 07:40:00;;;;;;;22.50;15.10;;;20.40;99.90;;;;;;5053269;28;20037;-77
2022/08/09 07:42:27;;;;;;;21.05;16.48;;;20.50;99.90;;;;;;5034964;28;20404;-76
2022/08/09 07:44:55;;;;;;;15.73;12.10;;;20.50;99.90;;;;;;5054307;28;20498;-79
2022/08/09 07:47:22;;;;;;;17.65;13.15;;;20.60;99.90;;;;;;5034855;28;20048;-77
2022/08/09 07:49:49;;;;;;;17.33;13.80;;;20.60;99.90;;;;;;5052984;28;20080;-78
2022/08/09 07:52:17;;;;;;;24.70;19.85;;;20.70;99.90;;;;;;5035406;28;20106;-78
2022/08/09 07:54:45;;;;;;;15.93;12.63;;;20.80;99.90;;;;;;5053512;28;20108;-77
2022/08/09 07:57:13;;;;;;;22.35;15.68;;;20.80;99.90;;;;;;5054244;28;20492;-78
2022/08/09 07:59:40;;;;;;;18.83;16.92;;;20.80;99.90;;;;;;5036460;28;20080;-78
2022/08/09 08:02:08;;;;;;;22.88;18.70;;;20.80;99.90;;;;;;5053592;28;20045;-78
2022/08/09 08:04:35;;;;;;;24.73;19.65;;;20.80;99.90;;;;;;5053350;28;20076;-77
2022/08/09 08:07:03;;;;;;;23.20;20.58;;;20.70;99.90;;;;;;5036111;28;20048;-78
2022/08/09 08:09:31;;;;;;;24.60;21.95;;;20.70;99.90;;;;;;5053154;28;20063;-78
2022/08/09 08:11:59;;;;;;;25.58;22.88;;;20.60;99.90;;;;;;5053758;28;20037;-78
2022/08/09 08:14:27;;;;;;;28.98;24.13;;;20.40;99.90;;;;;;5035764;28;20091;-78
2022/08/09 08:16:54;;;;;;;32.70;28.77;;;20.50;99.90;;;;;;5054960;28;20045;-77
2022/08/09 08:19:22;;;;;;;29.13;25.98;;;20.40;99.90;;;;;;5053936;28;20052;-76
2022/08/09 08:21:51;;;;;;;31.10;25.98;;;20.20;99.90;;;;;;5037479;28;20458;-78
2022/08/09 08:24:18;;;;;;;32.35;27.17;;;20.30;99.90;;;;;;5054484;28;20061;-78
2022/08/09 08:26:46;;;;;;;30.83;26.77;;;20.40;99.90;;;;;;5053673;28;20122;-78
2022/08/09 08:29:18;;;;;;;32.90;26.55;;;20.50;99.90;;;;;;5035644;28;20052;-77
2022/08/09 08:31:45;;;;;;;28.15;25.23;;;20.40;99.90;;;;;;5035552;28;20077;-78
2022/08/09 08:34:13;;;;;;;27.05;22.65;;;20.40;99.90;;;;;;5053944;28;20480;-78
2022/08/09 08:36:41;;;;;;;23.25;20.85;;;20.50;99.90;;;;;;5059547;28;20500;-76
2022/08/09 08:39:10;;;;;;;24.65;17.83;;;20.60;99.90;;;;;;5057531;28;20071;-77
2022/08/09 08:41:38;;;;;;;18.42;16.38;;;20.70;99.90;;;;;;5041903;28;20492;-77
2022/08/09 08:44:05;;;;;;;16.00;14.40;;;20.60;99.90;;;;;;5039966;28;20044;-77
2022/08/09 08:46:39;;;;;;;15.23;13.23;;;20.70;99.90;;;;;;5059982;28;20048;-78
2022/08/09 08:49:07;;;;;;;16.35;12.82;;;20.50;99.90;;;;;;5058551;28;20061;-77
2022/08/09 08:51:35;;;;;;;15.27;13.48;;;20.50;99.90;;;;;;5039304;28;20090;-77
2022/08/09 08:54:06;;;;;;;20.38;14.10;;;20.60;99.90;;;;;;5056762;28;20041;-77
2022/08/09 08:56:35;;;;;;;14.73;12.23;;;20.60;99.90;;;;;;5058099;28;20511;-79
2022/08/09 08:59:05;;;;;;;20.75;15.82;;;20.70;99.90;;;;;;5042897;28;20053;-77
2022/08/09 09:01:36;;;;;;;21.92;16.02;;;20.70;99.90;;;;;;5056394;28;20064;-77
2022/08/09 09:04:08;;;;;;;21.65;15.55;;;20.90;99.90;;;;;;5057775;28;20056;-78
2022/08/09 09:06:37;;;;;;;27.83;20.55;;;20.90;99.90;;;;;;5056729;28;20079;-77
2022/08/09 09:09:05;;;;;;;27.00;18.88;;;20.90;99.90;;;;;;5054771;28;20041;-76
2022/08/09 09:11:37;;;;;;;27.52;18.33;;;20.90;99.90;;;;;;5058520;28;20044;-77
2022/08/09 09:14:15;;;;;;;31.20;18.77;;;21.00;99.90;;;;;;5059041;28;20047;-78
2022/08/09 09:16:44;;;;;;;26.25;16.15;;;20.80;99.90;;;;;;5064609;28;20044;-78
2022/08/09 09:19:13;;;;;;;33.50;19.92;;;20.80;99.90;;;;;;5039958;28;20110;-78
2022/08/09 09:22:03;;;;;;;31.90;18.70;;;20.80;99.90;;;;;;5062435;28;20049;-78
2022/08/09 09:24:32;;;;;;;30.20;18.30;;;20.70;99.90;;;;;;5056267;28;20099;-77
2022/08/09 09:27:01;;;;;;;33.17;20.33;;;20.70;99.90;;;;;;5055527;28;20048;-77
2022/08/09 09:29:31;;;;;;;30.90;19.40;;;20.70;99.90;;;;;;5056792;28;20041;-78
2022/08/09 09:32:00;;;;;;;35.50;21.05;;;20.80;99.90;;;;;;5056186;28;20127;-77
2022/08/09 09:34:28;;;;;;;32.25;18.73;;;20.80;99.90;;;;;;5055350;28;20083;-77
2022/08/09 09:36:57;;;;;;;32.20;18.55;;;20.80;99.90;;;;;;5055423;28;20041;-77
2022/08/09 09:39:25;;;;;;;33.22;19.50;;;20.80;99.90;;;;;;5055313;28;20091;-77
2022/08/09 09:41:53;;;;;;;40.28;21.75;;;20.90;99.90;;;;;;5054977;28;20037;-76
2022/08/09 09:44:24;;;;;;;37.45;21.98;;;21.00;99.90;;;;;;5055227;28;20041;-77
2022/08/09 09:46:56;;;;;;;22.73;15.38;;;21.10;99.90;;;;;;5077505;28;20044;-75
2022/08/09 09:49:25;;;;;;;18.48;13.98;;;21.10;99.90;;;;;;5094044;22;20052;-76
2022/08/09 09:52:02;;;;;;;18.95;13.52;;;21.10;99.90;;;;;;5074661;28;20102;-75
2022/08/09 09:54:37;;;;;;;20.77;16.90;;;21.30;99.90;;;;;;5052335;28;20093;-78
2022/08/09 09:57:16;;;;;;;20.00;15.30;;;21.40;99.90;;;;;;5046499;28;20053;-79
2022/08/09 09:59:45;;;;;;;19.13;15.48;;;21.40;99.90;;;;;;5058626;28;20083;-79
2022/08/09 10:02:14;;;;;;;21.15;17.17;;;21.40;99.90;;;;;;5039120;28;20419;-78
2022/08/09 10:04:43;;;;;;;20.80;17.40;;;21.40;99.90;;;;;;5048579;28;20090;-77
2022/08/09 10:07:24;;;;;;;18.52;15.77;;;21.20;99.90;;;;;;5037431;28;20041;-77
2022/08/09 10:09:54;;;;;;;19.42;16.08;;;21.20;99.90;;;;;;5042794;28;20044;-77
2022/08/09 10:12:32;;;;;;;16.20;14.27;;;21.10;99.90;;;;;;5059298;28;20483;-79
2022/08/09 10:15:05;;;;;;;13.55;12.13;;;21.10;99.90;;;;;;5059663;28;20548;-78
2022/08/09 10:17:34;;;;;;;18.58;14.75;;;21.00;99.90;;;;;;5061178;28;20435;-78
2022/08/09 10:20:06;;;;;;;17.40;14.20;;;21.00;99.90;;;;;;5055332;28;20033;-79
2022/08/09 10:22:36;;;;;;;16.23;14.52;;;21.00;99.90;;;;;;5058347;28;20037;-77
2022/08/09 10:25:06;;;;;;;17.98;16.08;;;20.90;99.90;;;;;;5053429;28;20041;-76
2022/08/09 10:27:34;;;;;;;21.08;16.25;;;20.90;99.90;;;;;;5058358;28;20515;-76
2022/08/09 10:30:03;;;;;;;18.95;16.05;;;20.80;99.90;;;;;;5043449;28;20067;-78
2022/08/09 10:32:31;;;;;;;24.55;18.30;;;20.70;99.90;;;;;;5071468;28;20088;-77
2022/08/09 10:34:58;;;;;;;23.08;18.40;;;20.50;99.90;;;;;;5054611;28;20041;-77
2022/08/09 10:37:27;;;;;;;24.65;20.05;;;20.50;99.90;;;;;;5072313;28;20061;-77
2022/08/09 10:39:55;;;;;;;25.10;19.60;;;20.50;99.90;;;;;;5047973;28;20056;-78
2022/08/09 10:42:24;;;;;;;40.15;31.30;;;20.40;99.90;;;;;;5038418;28;20427;-77
2022/08/09 10:45:04;;;;;;;29.45;21.30;;;20.40;99.90;;;;;;5061717;28;20419;-76
2022/08/09 10:47:47;;;;;;;28.27;19.40;;;20.40;99.90;;;;;;5073966;28;20036;-78
2022/08/09 10:50:24;;;;;;;30.42;22.17;;;20.50;99.90;;;;;;5075702;28;20123;-78
2022/08/09 10:53:11;;;;;;;38.08;27.50;;;20.60;99.90;;;;;;5056742;28;20040;-77
2022/08/09 10:55:39;;;;;;;54.88;36.40;;;20.70;99.90;;;;;;5088976;28;20478;-77
2022/08/09 10:58:06;;;;;;;55.92;38.80;;;20.70;99.90;;;;;;5084059;28;20102;-76
2022/08/09 11:00:39;;;;;;;47.42;32.33;;;20.70;99.90;;;;;;5076760;28;20040;-76
2022/08/09 11:03:21;;;;;;;45.58;31.58;;;20.70;99.90;;;;;;5076861;28;20037;-78
2022/08/09 11:06:21;;;;;;;41.15;28.48;;;20.80;99.90;;;;;;5056961;28;20048;-76
2022/08/09 11:08:51;;;;;;;38.72;26.75;;;20.90;99.90;;;;;;5057128;28;20136;-77
2022/08/09 11:11:19;;;;;;;37.97;25.63;;;20.70;99.90;;;;;;5058143;28;20048;-77
2022/08/09 11:14:07;;;;;;;29.17;21.65;;;20.80;99.90;;;;;;5074858;28;20047;-77
2022/08/09 11:16:37;;;;;;;37.05;26.25;;;20.80;99.90;;;;;;5075308;28;20041;-77
2022/08/09 11:19:06;;;;;;;42.30;30.33;;;20.70;99.90;;;;;;5055072;28;20497;-79
2022/08/09 11:21:57;;;;;;;37.50;26.33;;;20.70;99.90;;;;;;5038370;28;20044;-76
2022/08/09 11:24:26;;;;;;;39.22;27.85;;;20.70;99.90;;;;;;5060422;28;20120;-78
2022/08/09 11:26:53;;;;;;;38.83;27.48;;;20.60;99.90;;;;;;5063462;28;20063;-76
2022/08/09 11:29:52;;;;;;;31.75;21.23;;;20.50;99.90;;;;;;5064404;28;20045;-80
2022/08/09 11:32:42;;;;;;;37.97;25.75;;;20.40;99.90;;;;;;5079936;28;20044;-79
2022/08/09 11:35:15;;;;;;;35.70;25.33;;;20.40;99.90;;;;;;5092498;28;20033;-79
2022/08/09 11:37:43;;;;;;;40.38;25.58;;;20.40;99.90;;;;;;5081551;28;20488;-78
2022/08/09 11:40:15;;;;;;;42.00;28.05;;;20.40;99.90;;;;;;5075951;28;20482;-81
2022/08/09 11:42:46;;;;;;;39.17;27.48;;;20.60;99.90;;;;;;5058028;28;20075;-78
2022/08/09 11:45:27;;;;;;;38.20;28.73;;;20.60;99.90;;;;;;5059370;28;20044;-79
2022/08/09 11:47:57;;;;;;;36.90;25.35;;;20.60;99.90;;;;;;5074894;28;20060;-78
2022/08/09 11:50:25;;;;;;;38.42;29.15;;;20.60;99.90;;;;;;5057432;28;20124;-77
2022/08/09 11:53:19;;;;;;;31.00;20.58;;;20.70;99.90;;;;;;5075050;28;20111;-76
2022/08/09 11:55:50;;;;;;;25.10;18.92;;;20.80;99.90;;;;;;5075055;28;20139;-75
2022/08/09 11:58:45;;;;;;;28.98;23.48;;;20.90;99.90;;;;;;5075125;28;20506;-75
2022/08/09 12:01:14;;;;;;;24.73;17.85;;;20.90;99.90;;;;;;5075295;28;20079;-76
2022/08/09 12:03:42;;;;;;;22.27;16.17;;;21.00;99.90;;;;;;5074894;28;20041;-78
2022/08/09 12:06:18;;;;;;;20.92;14.90;;;21.10;99.90;;;;;;5057386;28;20045;-75
2022/08/09 12:08:52;;;;;;;17.23;14.13;;;21.10;99.90;;;;;;5075878;28;20071;-77
2022/08/09 12:11:24;;;;;;;20.90;16.77;;;21.10;99.90;;;;;;5079344;28;20076;-76
2022/08/09 12:13:54;;;;;;;17.90;13.05;;;21.10;99.90;;;;;;5060270;28;20087;-76
2022/08/09 12:16:23;;;;;;;15.80;13.48;;;21.10;99.90;;;;;;5079518;28;20094;-75
2022/08/09 12:18:53;;;;;;;17.00;14.68;;;21.10;99.90;;;;;;5077991;28;20044;-75
2022/08/09 12:21:32;;;;;;;16.02;14.32;;;21.10;99.90;;;;;;5078346;28;20040;-75
2022/08/09 12:24:02;;;;;;;16.30;13.02;;;21.10;99.90;;;;;;5078034;28;20052;-77
2022/08/09 12:26:50;;;;;;;26.30;19.80;;;21.10;99.90;;;;;;5078474;28;20044;-77
2022/08/09 12:29:19;;;;;;;16.23;14.50;;;21.30;99.90;;;;;;5077839;28;20085;-76
2022/08/09 12:31:48;;;;;;;17.67;15.52;;;21.40;99.90;;;;;;5077345;28;20052;-77
2022/08/09 12:34:17;;;;;;;27.15;22.90;;;21.40;99.90;;;;;;5077949;28;20447;-77
2022/08/09 12:36:52;;;;;;;13.70;12.15;;;21.60;99.90;;;;;;5059941;28;20052;-76
2022/08/09 12:39:25;;;;;;;16.25;11.88;;;21.80;99.90;;;;;;5077038;28;20127;-76
2022/08/09 12:42:06;;;;;;;13.48;11.07;;;22.10;99.90;;;;;;5059002;28;20545;-76
2022/08/09 12:44:36;;;;;;;9.70;8.45;;;22.40;99.90;;;;;;5079017;28;20573;-76
2022/08/09 12:47:05;;;;;;;13.02;8.85;;;22.70;99.90;;;;;;5077625;28;20036;-76